sensor_id;sensor_type;location;lat;lon;timestamp;P1;durP1;ratioP1;P2;durP2;ratioP2
31786;SDS011;18356;52.380;9.820;2023-02-07T00:00:12;20.93;;;11.23;;
31786;SDS011;18356;52.380;9.820;2023-02-07T00:02:45;26.57;;;12.03;;
31786;SDS011;18356;52.380;9.820;2023-02-07T00:05:11;22.30;;;11.23;;
31786;SDS011;18356;52.380;9.820;2023-02-07T00:07:37;25.83;;;12.13;;
31786;SDS011;18356;52.380;9.820;2023-02-07T00:10:04;24.63;;;11.83;;
31786;SDS011;18356;52.380;9.820;2023-02-07T00:12:31;25.60;;;11.93;;
31786;SDS011;18356;52.380;9.820;2023-02-07T00:14:57;24.77;;;12.60;;
31786;SDS011;18356;52.380;9.820;2023-02-07T00:17:23;22.07;;;12.53;;
31786;SDS011;18356;52.380;9.820;2023-02-07T00:19:49;27.03;;;12.37;;
31786;SDS011;18356;52.380;9.820;2023-02-07T00:22:15;24.40;;;12.23;;
31786;SDS011;18356;52.380;9.820;2023-02-07T00:24:41;21.23;;;11.30;;
31786;SDS011;18356;52.380;9.820;2023-02-07T00:27:07;22.17;;;13.83;;
31786;SDS011;18356;52.380;9.820;2023-02-07T00:29:33;24.63;;;11.53;;
31786;SDS011;18356;52.380;9.820;2023-02-07T00:31:59;23.17;;;11.13;;
31786;SDS011;18356;52.380;9.820;2023-02-07T00:34:25;27.57;;;11.50;;
31786;SDS011;18356;52.380;9.820;2023-02-07T00:36:51;25.00;;;11.47;;
31786;SDS011;18356;52.380;9.820;2023-02-07T00:39:17;21.07;;;11.07;;
31786;SDS011;18356;52.380;9.820;2023-02-07T00:41:43;24.77;;;12.37;;
31786;SDS011;18356;52.380;9.820;2023-02-07T00:44:09;27.97;;;12.90;;
31786;SDS011;18356;52.380;9.820;2023-02-07T00:46:36;29.80;;;17.10;;
31786;SDS011;18356;52.380;9.820;2023-02-07T00:49:03;29.20;;;16.23;;
31786;SDS011;18356;52.380;9.820;2023-02-07T00:51:29;23.93;;;12.43;;
31786;SDS011;18356;52.380;9.820;2023-02-07T00:53:55;28.03;;;13.33;;
31786;SDS011;18356;52.380;9.820;2023-02-07T00:56:22;25.80;;;12.53;;
31786;SDS011;18356;52.380;9.820;2023-02-07T00:58:48;26.20;;;13.13;;
31786;SDS011;18356;52.380;9.820;2023-02-07T01:01:14;25.20;;;12.80;;
31786;SDS011;18356;52.380;9.820;2023-02-07T01:03:40;26.57;;;13.63;;
31786;SDS011;18356;52.380;9.820;2023-02-07T01:06:07;23.87;;;12.80;;
31786;SDS011;18356;52.380;9.820;2023-02-07T01:08:33;31.07;;;14.40;;
31786;SDS011;18356;52.380;9.820;2023-02-07T01:11:03;25.07;;;13.57;;
31786;SDS011;18356;52.380;9.820;2023-02-07T01:13:30;35.70;;;19.33;;
31786;SDS011;18356;52.380;9.820;2023-02-07T01:15:56;29.27;;;15.20;;
31786;SDS011;18356;52.380;9.820;2023-02-07T01:18:22;31.63;;;15.87;;
31786;SDS011;18356;52.380;9.820;2023-02-07T01:20:48;30.10;;;14.87;;
31786;SDS011;18356;52.380;9.820;2023-02-07T01:23:14;33.37;;;20.97;;
31786;SDS011;18356;52.380;9.820;2023-02-07T01:25:41;31.80;;;18.40;;
31786;SDS011;18356;52.380;9.820;2023-02-07T01:28:10;27.07;;;17.27;;
31786;SDS011;18356;52.380;9.820;2023-02-07T01:30:40;28.67;;;14.83;;
31786;SDS011;18356;52.380;9.820;2023-02-07T01:33:07;27.97;;;14.60;;
31786;SDS011;18356;52.380;9.820;2023-02-07T01:35:35;28.07;;;14.17;;
31786;SDS011;18356;52.380;9.820;2023-02-07T01:38:01;25.93;;;14.60;;
31786;SDS011;18356;52.380;9.820;2023-02-07T01:40:28;28.37;;;14.80;;
31786;SDS011;18356;52.380;9.820;2023-02-07T01:42:54;27.67;;;14.67;;
31786;SDS011;18356;52.380;9.820;2023-02-07T01:47:47;28.57;;;14.97;;
31786;SDS011;18356;52.380;9.820;2023-02-07T01:50:13;27.97;;;14.43;;
31786;SDS011;18356;52.380;9.820;2023-02-07T01:52:40;26.17;;;14.63;;
31786;SDS011;18356;52.380;9.820;2023-02-07T01:55:08;29.47;;;13.60;;
31786;SDS011;18356;52.380;9.820;2023-02-07T01:57:35;26.00;;;14.37;;
31786;SDS011;18356;52.380;9.820;2023-02-07T02:00:01;27.50;;;15.30;;
31786;SDS011;18356;52.380;9.820;2023-02-07T02:02:27;28.97;;;14.93;;
31786;SDS011;18356;52.380;9.820;2023-02-07T02:04:55;24.53;;;13.90;;
31786;SDS011;18356;52.380;9.820;2023-02-07T02:07:22;27.87;;;14.80;;
31786;SDS011;18356;52.380;9.820;2023-02-07T02:09:48;27.57;;;14.57;;
31786;SDS011;18356;52.380;9.820;2023-02-07T02:33:17;28.03;;;15.80;;
31786;SDS011;18356;52.380;9.820;2023-02-07T02:43:40;27.13;;;14.73;;
31786;SDS011;18356;52.380;9.820;2023-02-07T02:46:10;25.97;;;14.27;;
31786;SDS011;18356;52.380;9.820;2023-02-07T02:48:37;27.20;;;14.17;;
31786;SDS011;18356;52.380;9.820;2023-02-07T02:51:03;26.60;;;13.83;;
31786;SDS011;18356;52.380;9.820;2023-02-07T02:53:29;26.10;;;14.47;;
31786;SDS011;18356;52.380;9.820;2023-02-07T03:11:55;25.83;;;17.30;;
31786;SDS011;18356;52.380;9.820;2023-02-07T03:16:55;26.60;;;14.03;;
31786;SDS011;18356;52.380;9.820;2023-02-07T03:19:37;26.33;;;13.97;;
31786;SDS011;18356;52.380;9.820;2023-02-07T03:22:06;26.30;;;13.37;;
31786;SDS011;18356;52.380;9.820;2023-02-07T03:24:35;25.50;;;13.43;;
31786;SDS011;18356;52.380;9.820;2023-02-07T03:27:04;27.97;;;13.33;;
31786;SDS011;18356;52.380;9.820;2023-02-07T03:29:31;24.53;;;16.70;;
31786;SDS011;18356;52.380;9.820;2023-02-07T03:31:57;25.00;;;16.57;;
31786;SDS011;18356;52.380;9.820;2023-02-07T03:34:35;26.40;;;16.00;;
31786;SDS011;18356;52.380;9.820;2023-02-07T03:37:05;26.80;;;13.93;;
31786;SDS011;18356;52.380;9.820;2023-02-07T03:39:33;26.67;;;13.63;;
31786;SDS011;18356;52.380;9.820;2023-02-07T03:42:09;25.20;;;13.47;;
31786;SDS011;18356;52.380;9.820;2023-02-07T03:44:38;28.07;;;14.43;;
31786;SDS011;18356;52.380;9.820;2023-02-07T03:47:06;28.83;;;14.53;;
31786;SDS011;18356;52.380;9.820;2023-02-07T03:49:32;26.40;;;14.27;;
31786;SDS011;18356;52.380;9.820;2023-02-07T03:51:58;25.57;;;14.07;;
31786;SDS011;18356;52.380;9.820;2023-02-07T03:54:25;26.03;;;13.57;;
31786;SDS011;18356;52.380;9.820;2023-02-07T03:56:51;27.67;;;13.93;;
31786;SDS011;18356;52.380;9.820;2023-02-07T03:59:17;28.80;;;18.20;;
31786;SDS011;18356;52.380;9.820;2023-02-07T04:01:42;27.67;;;17.43;;
31786;SDS011;18356;52.380;9.820;2023-02-07T04:04:09;27.63;;;16.37;;
31786;SDS011;18356;52.380;9.820;2023-02-07T04:06:35;32.73;;;18.63;;
31786;SDS011;18356;52.380;9.820;2023-02-07T04:09:01;26.90;;;17.77;;
31786;SDS011;18356;52.380;9.820;2023-02-07T04:11:27;26.70;;;13.57;;
31786;SDS011;18356;52.380;9.820;2023-02-07T04:13:53;26.33;;;14.90;;
31786;SDS011;18356;52.380;9.820;2023-02-07T04:16:19;28.83;;;18.47;;
31786;SDS011;18356;52.380;9.820;2023-02-07T04:18:45;29.70;;;18.33;;
31786;SDS011;18356;52.380;9.820;2023-02-07T04:21:11;27.17;;;14.50;;
31786;SDS011;18356;52.380;9.820;2023-02-07T04:23:37;28.37;;;14.90;;
31786;SDS011;18356;52.380;9.820;2023-02-07T04:26:03;29.13;;;15.13;;
31786;SDS011;18356;52.380;9.820;2023-02-07T04:28:29;29.93;;;15.33;;
31786;SDS011;18356;52.380;9.820;2023-02-07T04:30:55;28.10;;;14.60;;
31786;SDS011;18356;52.380;9.820;2023-02-07T04:33:21;32.45;;;17.58;;
31786;SDS011;18356;52.380;9.820;2023-02-07T04:35:57;29.90;;;18.43;;
31786;SDS011;18356;52.380;9.820;2023-02-07T04:38:24;28.33;;;17.60;;
31786;SDS011;18356;52.380;9.820;2023-02-07T04:40:50;31.13;;;19.13;;
31786;SDS011;18356;52.380;9.820;2023-02-07T04:43:16;29.97;;;17.47;;
31786;SDS011;18356;52.380;9.820;2023-02-07T04:45:44;29.80;;;18.47;;
31786;SDS011;18356;52.380;9.820;2023-02-07T04:48:11;31.40;;;18.77;;
31786;SDS011;18356;52.380;9.820;2023-02-07T04:50:37;30.17;;;18.80;;
31786;SDS011;18356;52.380;9.820;2023-02-07T04:53:03;28.77;;;14.63;;
31786;SDS011;18356;52.380;9.820;2023-02-07T04:55:29;28.47;;;14.90;;
31786;SDS011;18356;52.380;9.820;2023-02-07T04:57:55;32.53;;;15.30;;
31786;SDS011;18356;52.380;9.820;2023-02-07T05:00:21;29.30;;;15.13;;
31786;SDS011;18356;52.380;9.820;2023-02-07T05:02:47;29.33;;;15.43;;
31786;SDS011;18356;52.380;9.820;2023-02-07T05:05:13;29.67;;;18.83;;
31786;SDS011;18356;52.380;9.820;2023-02-07T05:07:39;32.10;;;20.03;;
31786;SDS011;18356;52.380;9.820;2023-02-07T05:10:05;30.27;;;18.73;;
31786;SDS011;18356;52.380;9.820;2023-02-07T05:12:31;32.87;;;19.57;;
31786;SDS011;18356;52.380;9.820;2023-02-07T05:14:57;29.40;;;19.60;;
31786;SDS011;18356;52.380;9.820;2023-02-07T05:17:23;32.63;;;20.13;;
31786;SDS011;18356;52.380;9.820;2023-02-07T05:19:49;34.23;;;20.40;;
31786;SDS011;18356;52.380;9.820;2023-02-07T05:22:15;35.47;;;20.40;;
31786;SDS011;18356;52.380;9.820;2023-02-07T05:24:41;36.00;;;20.87;;
31786;SDS011;18356;52.380;9.820;2023-02-07T05:27:08;40.80;;;22.93;;
31786;SDS011;18356;52.380;9.820;2023-02-07T05:29:34;42.73;;;23.10;;
31786;SDS011;18356;52.380;9.820;2023-02-07T05:31:59;41.43;;;22.93;;
31786;SDS011;18356;52.380;9.820;2023-02-07T05:34:44;41.60;;;22.97;;
31786;SDS011;18356;52.380;9.820;2023-02-07T05:37:10;36.60;;;22.43;;
31786;SDS011;18356;52.380;9.820;2023-02-07T05:39:36;39.50;;;22.33;;
31786;SDS011;18356;52.380;9.820;2023-02-07T05:42:02;36.30;;;22.27;;
31786;SDS011;18356;52.380;9.820;2023-02-07T05:44:28;37.47;;;21.93;;
31786;SDS011;18356;52.380;9.820;2023-02-07T05:46:54;36.97;;;21.13;;
31786;SDS011;18356;52.380;9.820;2023-02-07T05:49:20;33.77;;;16.37;;
31786;SDS011;18356;52.380;9.820;2023-02-07T05:51:46;37.57;;;20.33;;
31786;SDS011;18356;52.380;9.820;2023-02-07T05:54:12;36.00;;;19.77;;
31786;SDS011;18356;52.380;9.820;2023-02-07T05:56:38;35.93;;;21.13;;
31786;SDS011;18356;52.380;9.820;2023-02-07T05:59:04;35.23;;;21.00;;
31786;SDS011;18356;52.380;9.820;2023-02-07T06:01:30;35.67;;;21.27;;
31786;SDS011;18356;52.380;9.820;2023-02-07T06:03:56;33.60;;;19.60;;
31786;SDS011;18356;52.380;9.820;2023-02-07T06:06:22;37.43;;;19.93;;
31786;SDS011;18356;52.380;9.820;2023-02-07T06:08:48;39.30;;;20.17;;
31786;SDS011;18356;52.380;9.820;2023-02-07T06:11:14;35.40;;;20.77;;
31786;SDS011;18356;52.380;9.820;2023-02-07T06:13:40;36.37;;;21.90;;
31786;SDS011;18356;52.380;9.820;2023-02-07T06:16:06;38.20;;;20.97;;
31786;SDS011;18356;52.380;9.820;2023-02-07T06:18:33;38.93;;;22.03;;
31786;SDS011;18356;52.380;9.820;2023-02-07T06:20:59;39.07;;;21.57;;
31786;SDS011;18356;52.380;9.820;2023-02-07T06:23:25;36.70;;;22.17;;
31786;SDS011;18356;52.380;9.820;2023-02-07T06:25:51;40.93;;;23.30;;
31786;SDS011;18356;52.380;9.820;2023-02-07T06:28:17;39.00;;;23.27;;
31786;SDS011;18356;52.380;9.820;2023-02-07T06:30:43;38.47;;;23.17;;
31786;SDS011;18356;52.380;9.820;2023-02-07T06:33:09;48.17;;;26.67;;
31786;SDS011;18356;52.380;9.820;2023-02-07T06:35:35;40.93;;;19.13;;
31786;SDS011;18356;52.380;9.820;2023-02-07T06:38:01;40.27;;;19.33;;
31786;SDS011;18356;52.380;9.820;2023-02-07T06:40:27;41.03;;;23.73;;
31786;SDS011;18356;52.380;9.820;2023-02-07T06:42:54;42.73;;;24.57;;
31786;SDS011;18356;52.380;9.820;2023-02-07T06:45:20;38.53;;;22.57;;
31786;SDS011;18356;52.380;9.820;2023-02-07T06:47:45;52.27;;;27.20;;
31786;SDS011;18356;52.380;9.820;2023-02-07T06:50:11;37.93;;;23.17;;
31786;SDS011;18356;52.380;9.820;2023-02-07T06:52:37;37.27;;;20.03;;
31786;SDS011;18356;52.380;9.820;2023-02-07T06:55:03;44.43;;;24.43;;
31786;SDS011;18356;52.380;9.820;2023-02-07T06:57:29;40.80;;;23.60;;
31786;SDS011;18356;52.380;9.820;2023-02-07T06:59:55;40.00;;;23.70;;
31786;SDS011;18356;52.380;9.820;2023-02-07T07:02:21;42.43;;;24.67;;
31786;SDS011;18356;52.380;9.820;2023-02-07T07:04:47;37.57;;;22.60;;
31786;SDS011;18356;52.380;9.820;2023-02-07T07:07:14;40.43;;;23.60;;
31786;SDS011;18356;52.380;9.820;2023-02-07T07:09:40;41.07;;;24.03;;
31786;SDS011;18356;52.380;9.820;2023-02-07T07:12:06;39.73;;;24.17;;
31786;SDS011;18356;52.380;9.820;2023-02-07T07:14:32;46.77;;;26.63;;
31786;SDS011;18356;52.380;9.820;2023-02-07T07:16:58;40.20;;;23.30;;
31786;SDS011;18356;52.380;9.820;2023-02-07T07:19:24;40.77;;;23.47;;
31786;SDS011;18356;52.380;9.820;2023-02-07T07:21:50;43.63;;;24.30;;
31786;SDS011;18356;52.380;9.820;2023-02-07T07:24:16;39.27;;;23.63;;
31786;SDS011;18356;52.380;9.820;2023-02-07T07:26:43;40.17;;;23.40;;
31786;SDS011;18356;52.380;9.820;2023-02-07T07:29:09;44.07;;;25.77;;
31786;SDS011;18356;52.380;9.820;2023-02-07T07:31:35;42.63;;;25.00;;
31786;SDS011;18356;52.380;9.820;2023-02-07T07:34:01;40.57;;;24.87;;
31786;SDS011;18356;52.380;9.820;2023-02-07T07:36:27;41.00;;;24.47;;
31786;SDS011;18356;52.380;9.820;2023-02-07T07:38:53;44.00;;;24.43;;
31786;SDS011;18356;52.380;9.820;2023-02-07T07:41:19;45.23;;;20.13;;
31786;SDS011;18356;52.380;9.820;2023-02-07T07:43:45;42.67;;;24.47;;
31786;SDS011;18356;52.380;9.820;2023-02-07T07:46:11;44.90;;;25.80;;
31786;SDS011;18356;52.380;9.820;2023-02-07T07:48:37;46.13;;;26.13;;
31786;SDS011;18356;52.380;9.820;2023-02-07T07:51:03;43.30;;;25.17;;
31786;SDS011;18356;52.380;9.820;2023-02-07T07:53:29;41.27;;;20.63;;
31786;SDS011;18356;52.380;9.820;2023-02-07T07:55:56;40.43;;;20.33;;
31786;SDS011;18356;52.380;9.820;2023-02-07T07:58:22;41.83;;;20.30;;
31786;SDS011;18356;52.380;9.820;2023-02-07T08:00:49;42.03;;;21.23;;
31786;SDS011;18356;52.380;9.820;2023-02-07T08:03:15;45.27;;;21.00;;
31786;SDS011;18356;52.380;9.820;2023-02-07T08:05:43;38.13;;;19.90;;
31786;SDS011;18356;52.380;9.820;2023-02-07T08:08:09;44.03;;;21.97;;
31786;SDS011;18356;52.380;9.820;2023-02-07T08:10:36;45.97;;;22.20;;
31786;SDS011;18356;52.380;9.820;2023-02-07T08:13:02;49.90;;;27.67;;
31786;SDS011;18356;52.380;9.820;2023-02-07T08:15:28;44.90;;;22.27;;
31786;SDS011;18356;52.380;9.820;2023-02-07T08:17:54;45.43;;;22.03;;
31786;SDS011;18356;52.380;9.820;2023-02-07T08:20:20;50.43;;;21.57;;
31786;SDS011;18356;52.380;9.820;2023-02-07T08:22:46;52.40;;;22.53;;
31786;SDS011;18356;52.380;9.820;2023-02-07T08:25:12;48.00;;;26.53;;
31786;SDS011;18356;52.380;9.820;2023-02-07T08:27:38;43.30;;;20.70;;
31786;SDS011;18356;52.380;9.820;2023-02-07T08:30:05;42.70;;;20.77;;
31786;SDS011;18356;52.380;9.820;2023-02-07T08:32:31;43.03;;;21.70;;
31786;SDS011;18356;52.380;9.820;2023-02-07T08:34:57;39.30;;;20.43;;
31786;SDS011;18356;52.380;9.820;2023-02-07T08:37:23;42.40;;;21.47;;
31786;SDS011;18356;52.380;9.820;2023-02-07T08:39:49;42.33;;;19.97;;
31786;SDS011;18356;52.380;9.820;2023-02-07T08:42:20;46.67;;;19.70;;
31786;SDS011;18356;52.380;9.820;2023-02-07T08:44:46;38.10;;;20.10;;
31786;SDS011;18356;52.380;9.820;2023-02-07T08:47:12;39.67;;;20.27;;
31786;SDS011;18356;52.380;9.820;2023-02-07T08:49:38;37.57;;;19.23;;
31786;SDS011;18356;52.380;9.820;2023-02-07T08:52:04;38.30;;;18.90;;
31786;SDS011;18356;52.380;9.820;2023-02-07T08:54:31;33.07;;;18.37;;
31786;SDS011;18356;52.380;9.820;2023-02-07T08:56:57;38.30;;;19.23;;
31786;SDS011;18356;52.380;9.820;2023-02-07T08:59:23;37.40;;;19.37;;
31786;SDS011;18356;52.380;9.820;2023-02-07T09:01:49;35.77;;;18.20;;
31786;SDS011;18356;52.380;9.820;2023-02-07T09:04:15;35.33;;;19.03;;
31786;SDS011;18356;52.380;9.820;2023-02-07T09:06:41;34.87;;;18.47;;
31786;SDS011;18356;52.380;9.820;2023-02-07T09:09:07;32.97;;;18.17;;
31786;SDS011;18356;52.380;9.820;2023-02-07T09:11:34;34.07;;;18.27;;
31786;SDS011;18356;52.380;9.820;2023-02-07T09:14:00;34.60;;;17.47;;
31786;SDS011;18356;52.380;9.820;2023-02-07T09:16:26;32.03;;;17.30;;
31786;SDS011;18356;52.380;9.820;2023-02-07T09:18:52;30.87;;;17.13;;
31786;SDS011;18356;52.380;9.820;2023-02-07T09:21:18;32.37;;;17.70;;
31786;SDS011;18356;52.380;9.820;2023-02-07T09:23:44;33.63;;;17.90;;
31786;SDS011;18356;52.380;9.820;2023-02-07T09:26:14;35.30;;;17.90;;
31786;SDS011;18356;52.380;9.820;2023-02-07T09:28:41;31.23;;;16.77;;
31786;SDS011;18356;52.380;9.820;2023-02-07T09:31:08;36.70;;;17.90;;
31786;SDS011;18356;52.380;9.820;2023-02-07T09:33:34;34.07;;;18.00;;
31786;SDS011;18356;52.380;9.820;2023-02-07T09:36:01;29.43;;;16.50;;
31786;SDS011;18356;52.380;9.820;2023-02-07T09:38:27;29.70;;;16.70;;
31786;SDS011;18356;52.380;9.820;2023-02-07T09:40:53;31.17;;;15.60;;
31786;SDS011;18356;52.380;9.820;2023-02-07T09:46:26;38.13;;;15.03;;
31786;SDS011;18356;52.380;9.820;2023-02-07T09:49:05;29.63;;;15.97;;
31786;SDS011;18356;52.380;9.820;2023-02-07T09:51:32;25.63;;;13.93;;
31786;SDS011;18356;52.380;9.820;2023-02-07T09:54:00;28.40;;;14.83;;
31786;SDS011;18356;52.380;9.820;2023-02-07T09:56:28;29.10;;;15.50;;
31786;SDS011;18356;52.380;9.820;2023-02-07T10:01:29;29.97;;;15.37;;
31786;SDS011;18356;52.380;9.820;2023-02-07T10:06:29;25.07;;;14.77;;
31786;SDS011;18356;52.380;9.820;2023-02-07T10:08:55;23.87;;;14.20;;
31786;SDS011;18356;52.380;9.820;2023-02-07T10:14:12;26.57;;;14.60;;
31786;SDS011;18356;52.380;9.820;2023-02-07T10:19:46;29.67;;;14.67;;
31786;SDS011;18356;52.380;9.820;2023-02-07T10:22:22;28.43;;;15.23;;
31786;SDS011;18356;52.380;9.820;2023-02-07T10:27:21;26.20;;;14.50;;
31786;SDS011;18356;52.380;9.820;2023-02-07T10:29:55;25.77;;;14.70;;
31786;SDS011;18356;52.380;9.820;2023-02-07T10:32:25;24.27;;;14.37;;
31786;SDS011;18356;52.380;9.820;2023-02-07T10:34:55;25.97;;;13.87;;
31786;SDS011;18356;52.380;9.820;2023-02-07T10:37:26;22.70;;;13.07;;
31786;SDS011;18356;52.380;9.820;2023-02-07T10:39:58;22.73;;;13.50;;
31786;SDS011;18356;52.380;9.820;2023-02-07T10:42:25;22.07;;;12.77;;
31786;SDS011;18356;52.380;9.820;2023-02-07T10:44:51;21.63;;;11.40;;
31786;SDS011;18356;52.380;9.820;2023-02-07T10:47:17;20.90;;;11.50;;
31786;SDS011;18356;52.380;9.820;2023-02-07T10:49:45;20.13;;;10.93;;
31786;SDS011;18356;52.380;9.820;2023-02-07T10:54:52;21.10;;;10.77;;
31786;SDS011;18356;52.380;9.820;2023-02-07T10:57:18;19.03;;;11.03;;
31786;SDS011;18356;52.380;9.820;2023-02-07T10:59:45;15.80;;;9.10;;
31786;SDS011;18356;52.380;9.820;2023-02-07T11:04:53;16.73;;;9.67;;
31786;SDS011;18356;52.380;9.820;2023-02-07T11:07:19;18.57;;;9.40;;
31786;SDS011;18356;52.380;9.820;2023-02-07T11:09:46;23.03;;;9.43;;
31786;SDS011;18356;52.380;9.820;2023-02-07T11:12:22;18.77;;;9.80;;
31786;SDS011;18356;52.380;9.820;2023-02-07T11:14:59;18.97;;;10.23;;
31786;SDS011;18356;52.380;9.820;2023-02-07T11:17:27;18.87;;;9.63;;
31786;SDS011;18356;52.380;9.820;2023-02-07T11:19:54;18.33;;;10.53;;
31786;SDS011;18356;52.380;9.820;2023-02-07T11:22:20;21.23;;;10.33;;
31786;SDS011;18356;52.380;9.820;2023-02-07T11:24:47;19.30;;;9.17;;
31786;SDS011;18356;52.380;9.820;2023-02-07T11:27:17;16.27;;;9.53;;
31786;SDS011;18356;52.380;9.820;2023-02-07T11:32:14;25.10;;;13.43;;
31786;SDS011;18356;52.380;9.820;2023-02-07T11:39:43;22.30;;;11.63;;
31786;SDS011;18356;52.380;9.820;2023-02-07T11:42:13;23.87;;;12.40;;
31786;SDS011;18356;52.380;9.820;2023-02-07T11:44:40;25.17;;;13.20;;
31786;SDS011;18356;52.380;9.820;2023-02-07T11:47:08;24.87;;;12.40;;
31786;SDS011;18356;52.380;9.820;2023-02-07T11:52:02;29.13;;;12.30;;
31786;SDS011;18356;52.380;9.820;2023-02-07T11:54:29;23.23;;;12.63;;
31786;SDS011;18356;52.380;9.820;2023-02-07T11:56:59;20.73;;;12.03;;
31786;SDS011;18356;52.380;9.820;2023-02-07T11:59:26;18.07;;;11.10;;
31786;SDS011;18356;52.380;9.820;2023-02-07T12:01:53;18.17;;;10.90;;
31786;SDS011;18356;52.380;9.820;2023-02-07T12:04:23;21.70;;;12.70;;
31786;SDS011;18356;52.380;9.820;2023-02-07T12:06:57;20.97;;;12.23;;
31786;SDS011;18356;52.380;9.820;2023-02-07T12:09:36;21.57;;;13.00;;
31786;SDS011;18356;52.380;9.820;2023-02-07T12:12:05;22.47;;;12.93;;
31786;SDS011;18356;52.380;9.820;2023-02-07T12:14:35;24.47;;;12.03;;
31786;SDS011;18356;52.380;9.820;2023-02-07T12:17:04;23.00;;;11.43;;
31786;SDS011;18356;52.380;9.820;2023-02-07T12:19:34;19.43;;;11.10;;
31786;SDS011;18356;52.380;9.820;2023-02-07T12:22:04;20.40;;;11.47;;
31786;SDS011;18356;52.380;9.820;2023-02-07T12:24:39;19.63;;;11.73;;
31786;SDS011;18356;52.380;9.820;2023-02-07T12:35:04;21.93;;;12.33;;
31786;SDS011;18356;52.380;9.820;2023-02-07T12:37:38;20.57;;;11.80;;
31786;SDS011;18356;52.380;9.820;2023-02-07T12:40:22;21.30;;;11.90;;
31786;SDS011;18356;52.380;9.820;2023-02-07T12:42:58;19.67;;;11.70;;
31786;SDS011;18356;52.380;9.820;2023-02-07T12:45:30;17.10;;;10.50;;
31786;SDS011;18356;52.380;9.820;2023-02-07T12:48:01;21.17;;;11.90;;
31786;SDS011;18356;52.380;9.820;2023-02-07T12:55:40;19.83;;;11.27;;
31786;SDS011;18356;52.380;9.820;2023-02-07T13:00:58;17.73;;;10.93;;
31786;SDS011;18356;52.380;9.820;2023-02-07T13:06:04;19.23;;;11.30;;
31786;SDS011;18356;52.380;9.820;2023-02-07T13:08:41;19.53;;;11.53;;
31786;SDS011;18356;52.380;9.820;2023-02-07T13:16:15;20.70;;;11.50;;
31786;SDS011;18356;52.380;9.820;2023-02-07T13:23:36;20.57;;;11.37;;
31786;SDS011;18356;52.380;9.820;2023-02-07T13:26:10;19.93;;;11.23;;
31786;SDS011;18356;52.380;9.820;2023-02-07T13:28:45;24.60;;;12.20;;
31786;SDS011;18356;52.380;9.820;2023-02-07T13:31:14;24.63;;;12.37;;
31786;SDS011;18356;52.380;9.820;2023-02-07T13:33:42;24.77;;;13.20;;
31786;SDS011;18356;52.380;9.820;2023-02-07T13:44:16;22.93;;;11.27;;
31786;SDS011;18356;52.380;9.820;2023-02-07T13:49:15;17.20;;;10.10;;
31786;SDS011;18356;52.380;9.820;2023-02-07T13:51:48;20.27;;;11.17;;
31786;SDS011;18356;52.380;9.820;2023-02-07T13:54:30;21.40;;;11.40;;
31786;SDS011;18356;52.380;9.820;2023-02-07T13:57:00;21.63;;;12.17;;
31786;SDS011;18356;52.380;9.820;2023-02-07T14:05:37;17.83;;;10.37;;
31786;SDS011;18356;52.380;9.820;2023-02-07T14:08:39;21.93;;;12.40;;
31786;SDS011;18356;52.380;9.820;2023-02-07T14:13:50;24.00;;;10.47;;
31786;SDS011;18356;52.380;9.820;2023-02-07T14:19:12;20.70;;;10.93;;
31786;SDS011;18356;52.380;9.820;2023-02-07T14:21:39;21.50;;;10.70;;
31786;SDS011;18356;52.380;9.820;2023-02-07T14:32:37;19.03;;;10.73;;
31786;SDS011;18356;52.380;9.820;2023-02-07T14:40:52;20.70;;;10.37;;
31786;SDS011;18356;52.380;9.820;2023-02-07T14:43:06;20.93;;;11.10;;
31786;SDS011;18356;52.380;9.820;2023-02-07T14:45:35;17.47;;;10.47;;
31786;SDS011;18356;52.380;9.820;2023-02-07T14:48:06;25.33;;;11.23;;
31786;SDS011;18356;52.380;9.820;2023-02-07T14:50:32;20.00;;;10.47;;
31786;SDS011;18356;52.380;9.820;2023-02-07T14:53:00;18.87;;;10.30;;
31786;SDS011;18356;52.380;9.820;2023-02-07T14:55:41;19.77;;;10.83;;
31786;SDS011;18356;52.380;9.820;2023-02-07T15:00:57;21.03;;;10.70;;
31786;SDS011;18356;52.380;9.820;2023-02-07T15:03:23;17.57;;;10.30;;
31786;SDS011;18356;52.380;9.820;2023-02-07T15:05:57;20.77;;;11.60;;
31786;SDS011;18356;52.380;9.820;2023-02-07T15:08:24;17.80;;;10.13;;
31786;SDS011;18356;52.380;9.820;2023-02-07T15:10:54;21.60;;;11.23;;
31786;SDS011;18356;52.380;9.820;2023-02-07T15:13:31;22.20;;;11.03;;
31786;SDS011;18356;52.380;9.820;2023-02-07T15:19:18;20.38;;;14.18;;
31786;SDS011;18356;52.380;9.820;2023-02-07T15:21:44;23.87;;;12.20;;
31786;SDS011;18356;52.380;9.820;2023-02-07T15:24:26;24.70;;;10.43;;
31786;SDS011;18356;52.380;9.820;2023-02-07T15:26:54;20.00;;;9.67;;
31786;SDS011;18356;52.380;9.820;2023-02-07T15:29:22;17.43;;;9.90;;
31786;SDS011;18356;52.380;9.820;2023-02-07T15:31:48;18.90;;;10.80;;
31786;SDS011;18356;52.380;9.820;2023-02-07T15:34:16;17.63;;;9.53;;
31786;SDS011;18356;52.380;9.820;2023-02-07T15:36:43;17.10;;;9.50;;
31786;SDS011;18356;52.380;9.820;2023-02-07T15:39:14;18.57;;;9.70;;
31786;SDS011;18356;52.380;9.820;2023-02-07T15:41:40;16.17;;;9.20;;
31786;SDS011;18356;52.380;9.820;2023-02-07T15:44:25;18.10;;;9.47;;
31786;SDS011;18356;52.380;9.820;2023-02-07T15:46:55;17.00;;;9.33;;
31786;SDS011;18356;52.380;9.820;2023-02-07T15:51:55;16.27;;;8.47;;
31786;SDS011;18356;52.380;9.820;2023-02-07T15:54:22;14.97;;;8.30;;
31786;SDS011;18356;52.380;9.820;2023-02-07T15:56:51;18.33;;;9.17;;
31786;SDS011;18356;52.380;9.820;2023-02-07T15:59:20;20.23;;;8.60;;
31786;SDS011;18356;52.380;9.820;2023-02-07T16:01:50;16.60;;;8.67;;
31786;SDS011;18356;52.380;9.820;2023-02-07T16:04:17;14.70;;;8.03;;
31786;SDS011;18356;52.380;9.820;2023-02-07T16:06:54;18.23;;;9.23;;
31786;SDS011;18356;52.380;9.820;2023-02-07T16:09:34;16.50;;;9.03;;
31786;SDS011;18356;52.380;9.820;2023-02-07T16:12:00;16.37;;;8.73;;
31786;SDS011;18356;52.380;9.820;2023-02-07T16:14:26;20.07;;;8.93;;
31786;SDS011;18356;52.380;9.820;2023-02-07T16:16:56;20.13;;;8.80;;
31786;SDS011;18356;52.380;9.820;2023-02-07T16:21:55;19.27;;;9.30;;
31786;SDS011;18356;52.380;9.820;2023-02-07T16:24:22;21.70;;;9.90;;
31786;SDS011;18356;52.380;9.820;2023-02-07T16:26:51;20.70;;;9.77;;
31786;SDS011;18356;52.380;9.820;2023-02-07T16:29:18;20.00;;;9.67;;
31786;SDS011;18356;52.380;9.820;2023-02-07T16:31:45;27.13;;;10.90;;
31786;SDS011;18356;52.380;9.820;2023-02-07T16:34:12;19.60;;;10.03;;
31786;SDS011;18356;52.380;9.820;2023-02-07T16:36:39;20.40;;;10.30;;
31786;SDS011;18356;52.380;9.820;2023-02-07T16:39:05;23.83;;;10.40;;
31786;SDS011;18356;52.380;9.820;2023-02-07T16:41:32;20.80;;;10.60;;
31786;SDS011;18356;52.380;9.820;2023-02-07T16:43:59;28.83;;;10.97;;
31786;SDS011;18356;52.380;9.820;2023-02-07T16:46:26;24.63;;;10.43;;
31786;SDS011;18356;52.380;9.820;2023-02-07T16:48:52;29.90;;;10.93;;
31786;SDS011;18356;52.380;9.820;2023-02-07T16:51:18;22.17;;;10.87;;
31786;SDS011;18356;52.380;9.820;2023-02-07T16:53:44;25.63;;;10.90;;
31786;SDS011;18356;52.380;9.820;2023-02-07T16:56:11;24.17;;;11.83;;
31786;SDS011;18356;52.380;9.820;2023-02-07T16:58:38;24.73;;;10.97;;
31786;SDS011;18356;52.380;9.820;2023-02-07T17:01:04;24.83;;;11.90;;
31786;SDS011;18356;52.380;9.820;2023-02-07T17:03:30;27.07;;;11.70;;